New Raymer, Colorado
Current Conditions -  °F | °C
As of 12:55 AM on Friday 31 Oct 2014 (Local Time) from KFMM Reporting Station
Clear Clear  
Wind Chill: 27°   Ceiling: Unl
Heat Index: 34°   Visibility: 10mi
Dew Point: 28°   Wind: 8mph
Humidity: 78%   Direction: 70°ENE
Pressure: 30.43"   Gusts: NA
Location:  40.61°N, 103.84°W
Report Text: KFMM 310655Z AUTO 07007KT 10SM CLR 01/M02 A3043 RMK AO2 T00101025
Loading
Personal Weather Stations






























Interactive Weather Map
Tropical Storm Tracking
New forecast layout! Learn more

10-Day Weather Forecast

Advertisements
Track Severe Weather on mobile